sensor_id;sensor_type;location;lat;lon;timestamp;temperature;humidity
52285;DHT22;38238;53.304;6.606;2022-07-23T00:00:09;16.10;99.90
52285;DHT22;38238;53.304;6.606;2022-07-23T00:02:35;16.00;99.90
52285;DHT22;38238;53.304;6.606;2022-07-23T00:05:01;16.00;99.90
52285;DHT22;38238;53.304;6.606;2022-07-23T00:07:27;16.00;99.90
52285;DHT22;38238;53.304;6.606;2022-07-23T00:09:52;16.00;99.90
52285;DHT22;38238;53.304;6.606;2022-07-23T00:12:18;16.00;99.90
52285;DHT22;38238;53.304;6.606;2022-07-23T00:14:44;15.90;99.90
52285;DHT22;38238;53.304;6.606;2022-07-23T00:17:09;15.90;99.90
52285;DHT22;38238;53.304;6.606;2022-07-23T00:19:35;15.80;99.90
52285;DHT22;38238;53.304;6.606;2022-07-23T00:22:01;15.80;99.90
52285;DHT22;38238;53.304;6.606;2022-07-23T00:24:26;15.80;99.90
52285;DHT22;38238;53.304;6.606;2022-07-23T00:26:52;15.70;99.90
52285;DHT22;38238;53.304;6.606;2022-07-23T00:29:18;15.60;99.90
52285;DHT22;38238;53.304;6.606;2022-07-23T00:31:43;15.60;99.90
52285;DHT22;38238;53.304;6.606;2022-07-23T00:34:09;15.60;99.90
52285;DHT22;38238;53.304;6.606;2022-07-23T00:36:35;15.50;99.90
52285;DHT22;38238;53.304;6.606;2022-07-23T00:39:00;15.50;99.90
52285;DHT22;38238;53.304;6.606;2022-07-23T00:41:26;15.50;99.90
52285;DHT22;38238;53.304;6.606;2022-07-23T00:43:52;15.40;99.90
52285;DHT22;38238;53.304;6.606;2022-07-23T00:46:21;15.40;99.90
52285;DHT22;38238;53.304;6.606;2022-07-23T00:48:47;15.40;99.90
52285;DHT22;38238;53.304;6.606;2022-07-23T00:51:15;15.40;99.90
52285;DHT22;38238;53.304;6.606;2022-07-23T00:53:41;15.40;99.90
52285;DHT22;38238;53.304;6.606;2022-07-23T00:56:08;15.40;99.90
52285;DHT22;38238;53.304;6.606;2022-07-23T00:58:35;15.40;99.90
52285;DHT22;38238;53.304;6.606;2022-07-23T01:01:01;15.40;99.90
52285;DHT22;38238;53.304;6.606;2022-07-23T01:03:27;15.40;99.90
52285;DHT22;38238;53.304;6.606;2022-07-23T01:05:53;15.40;99.90
52285;DHT22;38238;53.304;6.606;2022-07-23T01:08:19;15.40;99.90
52285;DHT22;38238;53.304;6.606;2022-07-23T01:10:46;15.30;99.90
52285;DHT22;38238;53.304;6.606;2022-07-23T01:13:12;15.30;99.90
52285;DHT22;38238;53.304;6.606;2022-07-23T01:15:38;15.30;99.90
52285;DHT22;38238;53.304;6.606;2022-07-23T01:18:05;15.30;99.90
52285;DHT22;38238;53.304;6.606;2022-07-23T01:20:32;15.30;99.90
52285;DHT22;38238;53.304;6.606;2022-07-23T01:22:58;15.30;99.90
52285;DHT22;38238;53.304;6.606;2022-07-23T01:25:25;15.30;99.90
52285;DHT22;38238;53.304;6.606;2022-07-23T01:27:52;15.30;99.90
52285;DHT22;38238;53.304;6.606;2022-07-23T01:30:18;15.20;99.90
52285;DHT22;38238;53.304;6.606;2022-07-23T01:32:44;15.20;99.90
52285;DHT22;38238;53.304;6.606;2022-07-23T01:35:11;15.20;99.90
52285;DHT22;38238;53.304;6.606;2022-07-23T01:37:37;15.20;99.90
52285;DHT22;38238;53.304;6.606;2022-07-23T01:40:03;15.20;99.90
52285;DHT22;38238;53.304;6.606;2022-07-23T01:42:30;15.30;99.90
52285;DHT22;38238;53.304;6.606;2022-07-23T01:44:56;15.30;99.90
52285;DHT22;38238;53.304;6.606;2022-07-23T01:47:22;15.30;99.90
52285;DHT22;38238;53.304;6.606;2022-07-23T01:49:47;15.30;99.90
52285;DHT22;38238;53.304;6.606;2022-07-23T01:52:13;15.30;99.90
52285;DHT22;38238;53.304;6.606;2022-07-23T01:54:39;15.30;99.90
52285;DHT22;38238;53.304;6.606;2022-07-23T01:57:05;15.30;99.90
52285;DHT22;38238;53.304;6.606;2022-07-23T01:59:31;15.30;99.90
52285;DHT22;38238;53.304;6.606;2022-07-23T02:01:57;15.30;99.90
52285;DHT22;38238;53.304;6.606;2022-07-23T02:04:24;15.30;99.90
52285;DHT22;38238;53.304;6.606;2022-07-23T02:06:50;15.30;99.90
52285;DHT22;38238;53.304;6.606;2022-07-23T02:09:16;15.30;99.90
52285;DHT22;38238;53.304;6.606;2022-07-23T02:11:42;15.30;99.90
52285;DHT22;38238;53.304;6.606;2022-07-23T02:14:08;15.30;99.90
52285;DHT22;38238;53.304;6.606;2022-07-23T02:16:34;15.30;99.90
52285;DHT22;38238;53.304;6.606;2022-07-23T02:18:59;15.30;99.90
52285;DHT22;38238;53.304;6.606;2022-07-23T02:21:25;15.30;99.90
52285;DHT22;38238;53.304;6.606;2022-07-23T02:23:51;15.20;99.90
52285;DHT22;38238;53.304;6.606;2022-07-23T02:26:17;15.30;99.90
52285;DHT22;38238;53.304;6.606;2022-07-23T02:28:42;15.30;99.90
52285;DHT22;38238;53.304;6.606;2022-07-23T02:31:08;15.20;99.90
52285;DHT22;38238;53.304;6.606;2022-07-23T02:33:34;15.20;99.90
52285;DHT22;38238;53.304;6.606;2022-07-23T02:35:59;15.20;99.90
52285;DHT22;38238;53.304;6.606;2022-07-23T02:38:25;15.20;99.90
52285;DHT22;38238;53.304;6.606;2022-07-23T02:40:51;15.30;99.90
52285;DHT22;38238;53.304;6.606;2022-07-23T02:43:17;15.20;99.90
52285;DHT22;38238;53.304;6.606;2022-07-23T02:45:42;15.20;99.90
52285;DHT22;38238;53.304;6.606;2022-07-23T02:48:08;15.20;99.90
52285;DHT22;38238;53.304;6.606;2022-07-23T02:50:34;15.20;99.90
52285;DHT22;38238;53.304;6.606;2022-07-23T02:52:59;15.20;99.90
52285;DHT22;38238;53.304;6.606;2022-07-23T02:55:25;15.20;99.90
52285;DHT22;38238;53.304;6.606;2022-07-23T02:57:51;15.30;99.90
52285;DHT22;38238;53.304;6.606;2022-07-23T03:00:17;15.20;99.90
52285;DHT22;38238;53.304;6.606;2022-07-23T03:02:42;15.30;99.90
52285;DHT22;38238;53.304;6.606;2022-07-23T03:05:09;15.30;99.90
52285;DHT22;38238;53.304;6.606;2022-07-23T03:07:34;15.30;99.90
52285;DHT22;38238;53.304;6.606;2022-07-23T03:10:00;15.30;99.90
52285;DHT22;38238;53.304;6.606;2022-07-23T03:12:26;15.30;99.90
52285;DHT22;38238;53.304;6.606;2022-07-23T03:14:51;15.30;99.90
52285;DHT22;38238;53.304;6.606;2022-07-23T03:17:17;15.20;99.90
52285;DHT22;38238;53.304;6.606;2022-07-23T03:19:43;15.20;99.90
52285;DHT22;38238;53.304;6.606;2022-07-23T03:22:08;15.20;99.90
52285;DHT22;38238;53.304;6.606;2022-07-23T03:24:34;15.10;99.90
52285;DHT22;38238;53.304;6.606;2022-07-23T03:27:18;15.10;99.90
52285;DHT22;38238;53.304;6.606;2022-07-23T03:29:44;15.10;99.90
52285;DHT22;38238;53.304;6.606;2022-07-23T03:32:09;15.10;99.90
52285;DHT22;38238;53.304;6.606;2022-07-23T03:34:36;15.10;99.90
52285;DHT22;38238;53.304;6.606;2022-07-23T03:37:01;15.10;99.90
52285;DHT22;38238;53.304;6.606;2022-07-23T03:39:27;15.20;99.90
52285;DHT22;38238;53.304;6.606;2022-07-23T03:41:53;15.10;99.90
52285;DHT22;38238;53.304;6.606;2022-07-23T03:44:19;15.10;99.90
52285;DHT22;38238;53.304;6.606;2022-07-23T03:46:44;15.10;99.90
52285;DHT22;38238;53.304;6.606;2022-07-23T03:49:10;15.10;99.90
52285;DHT22;38238;53.304;6.606;2022-07-23T03:51:36;15.10;99.90
52285;DHT22;38238;53.304;6.606;2022-07-23T03:54:01;15.10;99.90
52285;DHT22;38238;53.304;6.606;2022-07-23T03:56:27;15.10;99.90
52285;DHT22;38238;53.304;6.606;2022-07-23T03:58:53;15.10;99.90
52285;DHT22;38238;53.304;6.606;2022-07-23T04:01:19;15.10;99.90
52285;DHT22;38238;53.304;6.606;2022-07-23T04:03:44;15.10;99.90
52285;DHT22;38238;53.304;6.606;2022-07-23T04:06:12;15.10;99.90
52285;DHT22;38238;53.304;6.606;2022-07-23T04:08:37;15.10;99.90
52285;DHT22;38238;53.304;6.606;2022-07-23T04:11:03;15.20;99.90
52285;DHT22;38238;53.304;6.606;2022-07-23T04:13:29;15.20;99.90
52285;DHT22;38238;53.304;6.606;2022-07-23T04:15:55;15.20;99.90
52285;DHT22;38238;53.304;6.606;2022-07-23T04:18:20;15.20;99.90
52285;DHT22;38238;53.304;6.606;2022-07-23T04:20:50;15.30;99.90
52285;DHT22;38238;53.304;6.606;2022-07-23T04:23:16;15.20;99.90
52285;DHT22;38238;53.304;6.606;2022-07-23T04:25:42;15.30;99.90
52285;DHT22;38238;53.304;6.606;2022-07-23T04:28:08;15.30;99.90
52285;DHT22;38238;53.304;6.606;2022-07-23T04:30:34;15.30;99.90
52285;DHT22;38238;53.304;6.606;2022-07-23T04:33:00;15.30;99.90
52285;DHT22;38238;53.304;6.606;2022-07-23T04:35:26;15.40;99.90
52285;DHT22;38238;53.304;6.606;2022-07-23T04:37:51;15.30;99.90
52285;DHT22;38238;53.304;6.606;2022-07-23T04:40:17;15.40;99.90
52285;DHT22;38238;53.304;6.606;2022-07-23T04:42:43;15.40;99.90
52285;DHT22;38238;53.304;6.606;2022-07-23T04:45:09;15.40;99.90
52285;DHT22;38238;53.304;6.606;2022-07-23T04:47:35;15.40;99.90
52285;DHT22;38238;53.304;6.606;2022-07-23T04:50:00;15.40;99.90
52285;DHT22;38238;53.304;6.606;2022-07-23T04:52:26;15.50;99.90
52285;DHT22;38238;53.304;6.606;2022-07-23T04:54:52;15.50;99.90
52285;DHT22;38238;53.304;6.606;2022-07-23T04:57:17;15.50;99.90
52285;DHT22;38238;53.304;6.606;2022-07-23T04:59:43;15.60;99.90
52285;DHT22;38238;53.304;6.606;2022-07-23T05:02:09;15.60;99.90
52285;DHT22;38238;53.304;6.606;2022-07-23T05:04:34;15.70;99.90
52285;DHT22;38238;53.304;6.606;2022-07-23T05:07:00;15.70;99.90
52285;DHT22;38238;53.304;6.606;2022-07-23T05:09:26;15.70;99.90
52285;DHT22;38238;53.304;6.606;2022-07-23T05:11:52;15.70;99.90
52285;DHT22;38238;53.304;6.606;2022-07-23T05:14:17;15.70;99.90
52285;DHT22;38238;53.304;6.606;2022-07-23T05:16:43;15.80;99.90
52285;DHT22;38238;53.304;6.606;2022-07-23T05:19:09;15.80;99.90
52285;DHT22;38238;53.304;6.606;2022-07-23T05:21:34;15.80;99.90
52285;DHT22;38238;53.304;6.606;2022-07-23T05:24:00;15.70;99.90
52285;DHT22;38238;53.304;6.606;2022-07-23T05:26:26;15.70;99.90
52285;DHT22;38238;53.304;6.606;2022-07-23T05:28:51;15.80;99.90
52285;DHT22;38238;53.304;6.606;2022-07-23T05:31:17;15.80;99.90
52285;DHT22;38238;53.304;6.606;2022-07-23T05:33:43;15.80;99.90
52285;DHT22;38238;53.304;6.606;2022-07-23T05:36:10;15.90;99.90
52285;DHT22;38238;53.304;6.606;2022-07-23T05:38:36;15.90;99.90
52285;DHT22;38238;53.304;6.606;2022-07-23T05:41:02;15.90;99.90
52285;DHT22;38238;53.304;6.606;2022-07-23T05:43:27;15.90;99.90
52285;DHT22;38238;53.304;6.606;2022-07-23T05:45:53;16.00;99.90
52285;DHT22;38238;53.304;6.606;2022-07-23T05:48:19;16.10;99.90
52285;DHT22;38238;53.304;6.606;2022-07-23T05:50:46;16.20;99.90
52285;DHT22;38238;53.304;6.606;2022-07-23T05:53:12;16.20;99.90
52285;DHT22;38238;53.304;6.606;2022-07-23T05:55:38;16.20;99.90
52285;DHT22;38238;53.304;6.606;2022-07-23T05:58:04;16.30;99.90
52285;DHT22;38238;53.304;6.606;2022-07-23T06:00:30;16.30;99.90
52285;DHT22;38238;53.304;6.606;2022-07-23T06:02:56;16.40;99.90
52285;DHT22;38238;53.304;6.606;2022-07-23T06:05:21;16.40;99.90
52285;DHT22;38238;53.304;6.606;2022-07-23T06:07:47;16.40;99.90
52285;DHT22;38238;53.304;6.606;2022-07-23T06:10:13;16.40;99.90
52285;DHT22;38238;53.304;6.606;2022-07-23T06:12:39;16.40;99.90
52285;DHT22;38238;53.304;6.606;2022-07-23T06:15:05;16.40;99.90
52285;DHT22;38238;53.304;6.606;2022-07-23T06:17:31;16.40;99.90
52285;DHT22;38238;53.304;6.606;2022-07-23T06:19:57;16.30;99.90
52285;DHT22;38238;53.304;6.606;2022-07-23T06:22:22;16.30;99.90
52285;DHT22;38238;53.304;6.606;2022-07-23T06:24:49;16.30;99.90
52285;DHT22;38238;53.304;6.606;2022-07-23T06:27:16;16.40;99.90
52285;DHT22;38238;53.304;6.606;2022-07-23T06:29:42;16.50;99.90
52285;DHT22;38238;53.304;6.606;2022-07-23T06:32:08;16.50;99.90
52285;DHT22;38238;53.304;6.606;2022-07-23T06:34:33;16.60;99.90
52285;DHT22;38238;53.304;6.606;2022-07-23T06:36:59;16.60;99.90
52285;DHT22;38238;53.304;6.606;2022-07-23T06:39:26;16.70;99.90
52285;DHT22;38238;53.304;6.606;2022-07-23T06:41:52;16.80;99.90
52285;DHT22;38238;53.304;6.606;2022-07-23T06:44:18;16.90;99.90
52285;DHT22;38238;53.304;6.606;2022-07-23T06:46:43;17.00;99.90
52285;DHT22;38238;53.304;6.606;2022-07-23T06:49:09;17.10;99.90
52285;DHT22;38238;53.304;6.606;2022-07-23T06:51:35;17.20;99.90
52285;DHT22;38238;53.304;6.606;2022-07-23T06:54:02;17.30;99.90
52285;DHT22;38238;53.304;6.606;2022-07-23T06:56:28;17.40;99.90
52285;DHT22;38238;53.304;6.606;2022-07-23T06:58:53;17.30;99.90
52285;DHT22;38238;53.304;6.606;2022-07-23T07:01:19;17.40;99.90
52285;DHT22;38238;53.304;6.606;2022-07-23T07:03:45;17.40;99.90
52285;DHT22;38238;53.304;6.606;2022-07-23T07:06:11;17.40;99.90
52285;DHT22;38238;53.304;6.606;2022-07-23T07:08:36;17.30;99.90
52285;DHT22;38238;53.304;6.606;2022-07-23T07:11:03;17.40;99.90
52285;DHT22;38238;53.304;6.606;2022-07-23T07:13:28;17.30;99.90
52285;DHT22;38238;53.304;6.606;2022-07-23T07:15:54;17.30;99.90
52285;DHT22;38238;53.304;6.606;2022-07-23T07:18:20;17.30;99.90
52285;DHT22;38238;53.304;6.606;2022-07-23T07:20:45;17.30;99.90
52285;DHT22;38238;53.304;6.606;2022-07-23T07:23:12;17.30;99.90
52285;DHT22;38238;53.304;6.606;2022-07-23T07:25:38;17.30;99.90
52285;DHT22;38238;53.304;6.606;2022-07-23T07:28:04;17.40;99.90
52285;DHT22;38238;53.304;6.606;2022-07-23T07:30:30;17.50;99.90
52285;DHT22;38238;53.304;6.606;2022-07-23T07:32:55;17.60;99.90
52285;DHT22;38238;53.304;6.606;2022-07-23T07:35:21;17.70;99.90
52285;DHT22;38238;53.304;6.606;2022-07-23T07:37:47;17.90;99.90
52285;DHT22;38238;53.304;6.606;2022-07-23T07:40:12;18.00;99.90
52285;DHT22;38238;53.304;6.606;2022-07-23T07:42:49;18.00;99.90
52285;DHT22;38238;53.304;6.606;2022-07-23T07:45:15;17.90;99.90
52285;DHT22;38238;53.304;6.606;2022-07-23T07:47:41;17.80;99.90
52285;DHT22;38238;53.304;6.606;2022-07-23T07:50:07;17.70;99.90
52285;DHT22;38238;53.304;6.606;2022-07-23T07:52:34;17.70;99.90
52285;DHT22;38238;53.304;6.606;2022-07-23T07:55:03;17.80;99.90
52285;DHT22;38238;53.304;6.606;2022-07-23T07:57:29;17.80;99.90
52285;DHT22;38238;53.304;6.606;2022-07-23T07:59:55;18.00;99.90
52285;DHT22;38238;53.304;6.606;2022-07-23T08:02:20;18.20;99.90
52285;DHT22;38238;53.304;6.606;2022-07-23T08:04:46;18.30;99.90
52285;DHT22;38238;53.304;6.606;2022-07-23T08:07:12;18.30;99.90
52285;DHT22;38238;53.304;6.606;2022-07-23T08:09:38;18.30;99.90
52285;DHT22;38238;53.304;6.606;2022-07-23T08:12:04;18.20;99.90
52285;DHT22;38238;53.304;6.606;2022-07-23T08:14:29;18.40;99.90
52285;DHT22;38238;53.304;6.606;2022-07-23T08:16:55;18.40;99.90
52285;DHT22;38238;53.304;6.606;2022-07-23T08:19:21;18.50;99.90
52285;DHT22;38238;53.304;6.606;2022-07-23T08:21:46;18.60;99.90
52285;DHT22;38238;53.304;6.606;2022-07-23T08:24:12;18.70;99.90
52285;DHT22;38238;53.304;6.606;2022-07-23T08:26:38;18.90;99.90
52285;DHT22;38238;53.304;6.606;2022-07-23T08:29:03;19.00;99.90
52285;DHT22;38238;53.304;6.606;2022-07-23T08:31:29;19.20;99.90
52285;DHT22;38238;53.304;6.606;2022-07-23T08:33:55;19.20;99.90
52285;DHT22;38238;53.304;6.606;2022-07-23T08:36:22;19.30;99.90
52285;DHT22;38238;53.304;6.606;2022-07-23T08:38:47;19.50;99.90
52285;DHT22;38238;53.304;6.606;2022-07-23T08:41:14;19.90;99.90
52285;DHT22;38238;53.304;6.606;2022-07-23T08:43:42;20.10;99.90
52285;DHT22;38238;53.304;6.606;2022-07-23T08:46:08;20.20;99.30
52285;DHT22;38238;53.304;6.606;2022-07-23T08:48:35;20.30;99.30
52285;DHT22;38238;53.304;6.606;2022-07-23T08:51:04;20.50;98.70
52285;DHT22;38238;53.304;6.606;2022-07-23T08:53:30;20.60;98.70
52285;DHT22;38238;53.304;6.606;2022-07-23T08:56:00;20.40;97.60
52285;DHT22;38238;53.304;6.606;2022-07-23T08:58:27;20.30;97.70
52285;DHT22;38238;53.304;6.606;2022-07-23T09:00:53;20.60;97.30
52285;DHT22;38238;53.304;6.606;2022-07-23T09:03:21;21.00;97.30
52285;DHT22;38238;53.304;6.606;2022-07-23T09:05:50;21.10;96.90
52285;DHT22;38238;53.304;6.606;2022-07-23T09:08:20;21.00;96.40
52285;DHT22;38238;53.304;6.606;2022-07-23T09:10:55;20.80;96.50
52285;DHT22;38238;53.304;6.606;2022-07-23T09:16:07;20.40;96.80
52285;DHT22;38238;53.304;6.606;2022-07-23T09:21:27;20.10;96.90
52285;DHT22;38238;53.304;6.606;2022-07-23T09:29:26;20.20;97.20
52285;DHT22;38238;53.304;6.606;2022-07-23T09:32:00;20.20;96.90
52285;DHT22;38238;53.304;6.606;2022-07-23T09:34:36;20.20;97.50
52285;DHT22;38238;53.304;6.606;2022-07-23T09:37:23;20.20;97.20
52285;DHT22;38238;53.304;6.606;2022-07-23T09:39:49;20.10;96.70
52285;DHT22;38238;53.304;6.606;2022-07-23T09:42:25;19.80;96.90
52285;DHT22;38238;53.304;6.606;2022-07-23T09:44:53;19.70;97.10
52285;DHT22;38238;53.304;6.606;2022-07-23T09:47:21;19.60;97.60
52285;DHT22;38238;53.304;6.606;2022-07-23T09:50:01;19.70;97.90
52285;DHT22;38238;53.304;6.606;2022-07-23T09:52:43;19.90;97.90
52285;DHT22;38238;53.304;6.606;2022-07-23T09:55:10;19.90;97.40
52285;DHT22;38238;53.304;6.606;2022-07-23T09:57:36;19.80;97.60
52285;DHT22;38238;53.304;6.606;2022-07-23T10:00:06;19.80;97.60
52285;DHT22;38238;53.304;6.606;2022-07-23T10:02:34;19.90;97.90
52285;DHT22;38238;53.304;6.606;2022-07-23T10:05:02;19.80;97.70
52285;DHT22;38238;53.304;6.606;2022-07-23T10:07:32;19.80;97.70
52285;DHT22;38238;53.304;6.606;2022-07-23T10:10:00;19.70;97.60
52285;DHT22;38238;53.304;6.606;2022-07-23T10:12:26;19.90;97.90
52285;DHT22;38238;53.304;6.606;2022-07-23T10:14:57;20.10;97.90
52285;DHT22;38238;53.304;6.606;2022-07-23T10:17:23;20.40;97.90
52285;DHT22;38238;53.304;6.606;2022-07-23T10:19:49;20.60;98.10
52285;DHT22;38238;53.304;6.606;2022-07-23T10:22:29;20.80;97.60
52285;DHT22;38238;53.304;6.606;2022-07-23T10:25:08;21.00;97.40
52285;DHT22;38238;53.304;6.606;2022-07-23T10:33:38;21.20;97.20
52285;DHT22;38238;53.304;6.606;2022-07-23T10:36:18;21.70;97.30
52285;DHT22;38238;53.304;6.606;2022-07-23T10:41:37;22.10;97.20
52285;DHT22;38238;53.304;6.606;2022-07-23T10:44:11;22.00;97.00
52285;DHT22;38238;53.304;6.606;2022-07-23T10:47:06;21.90;97.50
52285;DHT22;38238;53.304;6.606;2022-07-23T10:49:33;22.00;97.30
52285;DHT22;38238;53.304;6.606;2022-07-23T10:54:50;21.90;97.10
52285;DHT22;38238;53.304;6.606;2022-07-23T10:57:47;21.70;97.20
52285;DHT22;38238;53.304;6.606;2022-07-23T11:02:32;21.70;97.40
52285;DHT22;38238;53.304;6.606;2022-07-23T11:05:04;21.70;97.30
52285;DHT22;38238;53.304;6.606;2022-07-23T11:07:31;21.40;97.00
52285;DHT22;38238;53.304;6.606;2022-07-23T11:09:56;21.20;97.30
52285;DHT22;38238;53.304;6.606;2022-07-23T11:15:04;21.20;97.40
52285;DHT22;38238;53.304;6.606;2022-07-23T11:20:17;21.30;97.40
52285;DHT22;38238;53.304;6.606;2022-07-23T11:25:11;21.10;97.40
52285;DHT22;38238;53.304;6.606;2022-07-23T11:27:41;20.90;97.40
52285;DHT22;38238;53.304;6.606;2022-07-23T11:30:08;20.80;97.60
52285;DHT22;38238;53.304;6.606;2022-07-23T11:32:36;20.80;97.80
52285;DHT22;38238;53.304;6.606;2022-07-23T11:35:19;20.90;98.20
52285;DHT22;38238;53.304;6.606;2022-07-23T11:37:47;20.90;98.00
52285;DHT22;38238;53.304;6.606;2022-07-23T11:40:15;20.80;97.80
52285;DHT22;38238;53.304;6.606;2022-07-23T11:43:11;21.00;98.00
52285;DHT22;38238;53.304;6.606;2022-07-23T11:45:42;21.20;97.70
52285;DHT22;38238;53.304;6.606;2022-07-23T11:48:16;21.50;97.70
52285;DHT22;38238;53.304;6.606;2022-07-23T11:50:42;21.50;97.10
52285;DHT22;38238;53.304;6.606;2022-07-23T11:53:08;21.40;97.00
52285;DHT22;38238;53.304;6.606;2022-07-23T11:55:34;21.30;97.20
52285;DHT22;38238;53.304;6.606;2022-07-23T11:58:00;21.40;97.70
52285;DHT22;38238;53.304;6.606;2022-07-23T12:00:28;21.40;97.30
52285;DHT22;38238;53.304;6.606;2022-07-23T12:03:00;21.40;97.40
52285;DHT22;38238;53.304;6.606;2022-07-23T12:05:29;21.20;97.10
52285;DHT22;38238;53.304;6.606;2022-07-23T12:07:56;21.20;97.40
52285;DHT22;38238;53.304;6.606;2022-07-23T12:10:42;21.30;97.50
52285;DHT22;38238;53.304;6.606;2022-07-23T12:15:50;21.60;97.30
52285;DHT22;38238;53.304;6.606;2022-07-23T12:18:18;21.80;97.60
52285;DHT22;38238;53.304;6.606;2022-07-23T12:20:49;21.80;96.80
52285;DHT22;38238;53.304;6.606;2022-07-23T12:23:18;21.80;97.00
52285;DHT22;38238;53.304;6.606;2022-07-23T12:25:46;21.90;97.40
52285;DHT22;38238;53.304;6.606;2022-07-23T12:28:22;21.90;96.90
52285;DHT22;38238;53.304;6.606;2022-07-23T12:30:49;22.00;97.10
52285;DHT22;38238;53.304;6.606;2022-07-23T12:35:53;22.30;96.70
52285;DHT22;38238;53.304;6.606;2022-07-23T12:38:20;22.30;96.90
52285;DHT22;38238;53.304;6.606;2022-07-23T12:40:58;22.30;96.70
52285;DHT22;38238;53.304;6.606;2022-07-23T12:43:30;22.20;96.80
52285;DHT22;38238;53.304;6.606;2022-07-23T12:45:57;22.10;96.40
52285;DHT22;38238;53.304;6.606;2022-07-23T12:48:32;21.90;96.40
52285;DHT22;38238;53.304;6.606;2022-07-23T12:51:09;21.80;96.60
52285;DHT22;38238;53.304;6.606;2022-07-23T12:53:45;21.70;96.50
52285;DHT22;38238;53.304;6.606;2022-07-23T12:56:26;21.80;96.70
52285;DHT22;38238;53.304;6.606;2022-07-23T12:59:05;21.80;96.50
52285;DHT22;38238;53.304;6.606;2022-07-23T13:01:39;21.90;96.80
52285;DHT22;38238;53.304;6.606;2022-07-23T13:06:46;22.20;96.80
52285;DHT22;38238;53.304;6.606;2022-07-23T13:09:16;22.30;96.60
52285;DHT22;38238;53.304;6.606;2022-07-23T13:11:44;22.30;96.50
52285;DHT22;38238;53.304;6.606;2022-07-23T13:14:11;22.30;96.50
52285;DHT22;38238;53.304;6.606;2022-07-23T13:16:37;22.30;96.20
52285;DHT22;38238;53.304;6.606;2022-07-23T13:19:02;22.40;96.20
52285;DHT22;38238;53.304;6.606;2022-07-23T13:21:28;22.50;96.20
52285;DHT22;38238;53.304;6.606;2022-07-23T13:23:55;22.40;96.00
52285;DHT22;38238;53.304;6.606;2022-07-23T13:26:21;22.50;96.10
52285;DHT22;38238;53.304;6.606;2022-07-23T13:28:47;22.50;95.80
52285;DHT22;38238;53.304;6.606;2022-07-23T13:31:13;22.40;95.90
52285;DHT22;38238;53.304;6.606;2022-07-23T13:33:39;22.40;95.80
52285;DHT22;38238;53.304;6.606;2022-07-23T13:36:05;22.20;95.70
52285;DHT22;38238;53.304;6.606;2022-07-23T13:38:31;22.30;95.90
52285;DHT22;38238;53.304;6.606;2022-07-23T13:40:57;22.40;95.90
52285;DHT22;38238;53.304;6.606;2022-07-23T13:43:24;22.40;95.80
52285;DHT22;38238;53.304;6.606;2022-07-23T13:45:51;22.20;95.70
52285;DHT22;38238;53.304;6.606;2022-07-23T13:48:18;22.30;96.10
52285;DHT22;38238;53.304;6.606;2022-07-23T13:50:45;22.30;95.50
52285;DHT22;38238;53.304;6.606;2022-07-23T13:53:13;22.20;95.40
52285;DHT22;38238;53.304;6.606;2022-07-23T13:55:40;22.30;95.40
52285;DHT22;38238;53.304;6.606;2022-07-23T13:58:08;22.30;95.20
52285;DHT22;38238;53.304;6.606;2022-07-23T14:00:35;22.40;95.20
52285;DHT22;38238;53.304;6.606;2022-07-23T14:03:01;22.80;95.40
52285;DHT22;38238;53.304;6.606;2022-07-23T14:05:27;23.10;95.20
52285;DHT22;38238;53.304;6.606;2022-07-23T14:07:53;23.10;94.70
52285;DHT22;38238;53.304;6.606;2022-07-23T14:10:21;23.00;94.60
52285;DHT22;38238;53.304;6.606;2022-07-23T14:12:48;22.80;94.40
52285;DHT22;38238;53.304;6.606;2022-07-23T14:15:13;22.70;94.80
52285;DHT22;38238;53.304;6.606;2022-07-23T14:17:41;22.90;95.00
52285;DHT22;38238;53.304;6.606;2022-07-23T14:20:09;22.90;95.10
52285;DHT22;38238;53.304;6.606;2022-07-23T14:22:35;23.10;94.80
52285;DHT22;38238;53.304;6.606;2022-07-23T14:25:02;23.30;94.90
52285;DHT22;38238;53.304;6.606;2022-07-23T14:27:29;23.30;94.60
52285;DHT22;38238;53.304;6.606;2022-07-23T14:29:55;23.30;94.70
52285;DHT22;38238;53.304;6.606;2022-07-23T14:32:21;23.50;94.60
52285;DHT22;38238;53.304;6.606;2022-07-23T14:34:48;23.80;94.70
52285;DHT22;38238;53.304;6.606;2022-07-23T14:37:14;23.80;93.70
52285;DHT22;38238;53.304;6.606;2022-07-23T14:39:41;23.60;93.90
52285;DHT22;38238;53.304;6.606;2022-07-23T14:42:07;23.60;94.20
52285;DHT22;38238;53.304;6.606;2022-07-23T14:44:33;23.50;94.00
52285;DHT22;38238;53.304;6.606;2022-07-23T14:46:59;23.60;94.30
52285;DHT22;38238;53.304;6.606;2022-07-23T14:49:26;23.60;94.50
52285;DHT22;38238;53.304;6.606;2022-07-23T14:51:52;23.70;94.30
52285;DHT22;38238;53.304;6.606;2022-07-23T14:54:18;23.80;93.90
52285;DHT22;38238;53.304;6.606;2022-07-23T14:56:45;23.90;94.10
52285;DHT22;38238;53.304;6.606;2022-07-23T14:59:12;23.80;93.60
52285;DHT22;38238;53.304;6.606;2022-07-23T15:01:37;23.60;93.70
52285;DHT22;38238;53.304;6.606;2022-07-23T15:04:05;23.50;93.90
52285;DHT22;38238;53.304;6.606;2022-07-23T15:06:31;23.50;94.30
52285;DHT22;38238;53.304;6.606;2022-07-23T15:08:57;23.50;94.20
52285;DHT22;38238;53.304;6.606;2022-07-23T15:11:23;23.50;94.10
52285;DHT22;38238;53.304;6.606;2022-07-23T15:13:49;23.60;93.90
52285;DHT22;38238;53.304;6.606;2022-07-23T15:16:15;23.60;94.00
52285;DHT22;38238;53.304;6.606;2022-07-23T15:18:40;24.00;94.20
52285;DHT22;38238;53.304;6.606;2022-07-23T15:21:06;23.80;94.10
52285;DHT22;38238;53.304;6.606;2022-07-23T15:23:32;23.60;94.10
52285;DHT22;38238;53.304;6.606;2022-07-23T15:25:58;23.40;94.40
52285;DHT22;38238;53.304;6.606;2022-07-23T15:28:24;23.40;94.40
52285;DHT22;38238;53.304;6.606;2022-07-23T15:30:50;23.10;94.10
52285;DHT22;38238;53.304;6.606;2022-07-23T15:33:17;22.80;94.30
52285;DHT22;38238;53.304;6.606;2022-07-23T15:35:43;22.70;94.60
52285;DHT22;38238;53.304;6.606;2022-07-23T15:38:08;22.50;94.70
52285;DHT22;38238;53.304;6.606;2022-07-23T15:40:34;22.40;94.90
52285;DHT22;38238;53.304;6.606;2022-07-23T15:43:00;22.20;95.20
52285;DHT22;38238;53.304;6.606;2022-07-23T15:45:26;22.20;95.30
52285;DHT22;38238;53.304;6.606;2022-07-23T15:47:52;22.10;95.40
52285;DHT22;38238;53.304;6.606;2022-07-23T15:50:17;21.90;95.30
52285;DHT22;38238;53.304;6.606;2022-07-23T15:52:43;21.80;95.60
52285;DHT22;38238;53.304;6.606;2022-07-23T15:55:09;21.70;95.90
52285;DHT22;38238;53.304;6.606;2022-07-23T15:57:35;21.70;96.10
52285;DHT22;38238;53.304;6.606;2022-07-23T16:00:01;21.70;96.20
52285;DHT22;38238;53.304;6.606;2022-07-23T16:02:27;21.70;96.10
52285;DHT22;38238;53.304;6.606;2022-07-23T16:04:52;21.70;96.30
52285;DHT22;38238;53.304;6.606;2022-07-23T16:07:19;21.60;96.10
52285;DHT22;38238;53.304;6.606;2022-07-23T16:09:45;21.40;96.20